sensor_id;sensor_type;location;lat;lon;timestamp;temperature;humidity
3172;DHT22;1597;51.572;6.992;2023-07-20T00:01:44;18.60;99.90
3172;DHT22;1597;51.572;6.992;2023-07-20T00:04:11;18.60;99.90
3172;DHT22;1597;51.572;6.992;2023-07-20T00:06:37;18.50;99.90
3172;DHT22;1597;51.572;6.992;2023-07-20T00:09:09;18.50;99.90
3172;DHT22;1597;51.572;6.992;2023-07-20T00:11:39;18.40;99.90
3172;DHT22;1597;51.572;6.992;2023-07-20T00:14:06;18.40;99.90
3172;DHT22;1597;51.572;6.992;2023-07-20T00:16:32;18.50;99.90
3172;DHT22;1597;51.572;6.992;2023-07-20T00:18:58;18.60;99.90
3172;DHT22;1597;51.572;6.992;2023-07-20T00:21:24;18.70;99.90
3172;DHT22;1597;51.572;6.992;2023-07-20T00:23:50;18.90;99.90
3172;DHT22;1597;51.572;6.992;2023-07-20T00:26:16;19.00;99.90
3172;DHT22;1597;51.572;6.992;2023-07-20T00:28:41;19.00;99.90
3172;DHT22;1597;51.572;6.992;2023-07-20T00:31:08;19.00;99.90
3172;DHT22;1597;51.572;6.992;2023-07-20T00:33:34;18.90;99.90
3172;DHT22;1597;51.572;6.992;2023-07-20T00:36:00;18.70;99.90
3172;DHT22;1597;51.572;6.992;2023-07-20T00:38:26;18.70;99.90
3172;DHT22;1597;51.572;6.992;2023-07-20T00:40:51;18.70;99.90
3172;DHT22;1597;51.572;6.992;2023-07-20T00:43:17;18.90;99.90
3172;DHT22;1597;51.572;6.992;2023-07-20T00:45:43;19.00;99.90
3172;DHT22;1597;51.572;6.992;2023-07-20T00:48:10;19.10;99.90
3172;DHT22;1597;51.572;6.992;2023-07-20T00:50:36;19.20;99.90
3172;DHT22;1597;51.572;6.992;2023-07-20T00:53:03;19.20;99.90
3172;DHT22;1597;51.572;6.992;2023-07-20T00:55:32;19.30;99.90
3172;DHT22;1597;51.572;6.992;2023-07-20T00:57:59;19.20;99.90
3172;DHT22;1597;51.572;6.992;2023-07-20T01:00:25;19.20;99.90
3172;DHT22;1597;51.572;6.992;2023-07-20T01:02:52;19.30;99.90
3172;DHT22;1597;51.572;6.992;2023-07-20T01:05:17;19.40;99.90
3172;DHT22;1597;51.572;6.992;2023-07-20T01:07:58;19.50;99.90
3172;DHT22;1597;51.572;6.992;2023-07-20T01:10:40;19.60;99.90
3172;DHT22;1597;51.572;6.992;2023-07-20T01:13:10;19.60;99.90
3172;DHT22;1597;51.572;6.992;2023-07-20T01:15:36;19.50;99.90
3172;DHT22;1597;51.572;6.992;2023-07-20T01:18:02;19.40;99.90
3172;DHT22;1597;51.572;6.992;2023-07-20T01:20:31;19.30;99.90
3172;DHT22;1597;51.572;6.992;2023-07-20T01:29:01;19.40;99.90
3172;DHT22;1597;51.572;6.992;2023-07-20T01:31:53;19.30;99.90
3172;DHT22;1597;51.572;6.992;2023-07-20T01:34:21;19.40;99.90
3172;DHT22;1597;51.572;6.992;2023-07-20T01:36:50;19.50;99.90
3172;DHT22;1597;51.572;6.992;2023-07-20T01:39:19;19.40;99.90
3172;DHT22;1597;51.572;6.992;2023-07-20T01:41:46;19.30;99.90
3172;DHT22;1597;51.572;6.992;2023-07-20T01:44:13;19.30;99.90
3172;DHT22;1597;51.572;6.992;2023-07-20T01:46:38;19.30;99.90
3172;DHT22;1597;51.572;6.992;2023-07-20T01:49:04;19.30;99.90
3172;DHT22;1597;51.572;6.992;2023-07-20T01:51:30;19.20;99.90
3172;DHT22;1597;51.572;6.992;2023-07-20T01:53:56;19.20;99.90
3172;DHT22;1597;51.572;6.992;2023-07-20T01:56:21;19.30;99.90
3172;DHT22;1597;51.572;6.992;2023-07-20T01:58:47;19.30;99.90
3172;DHT22;1597;51.572;6.992;2023-07-20T02:01:13;19.40;99.90
3172;DHT22;1597;51.572;6.992;2023-07-20T02:03:38;19.30;99.90
3172;DHT22;1597;51.572;6.992;2023-07-20T02:06:05;19.30;99.90
3172;DHT22;1597;51.572;6.992;2023-07-20T02:08:31;19.10;99.90
3172;DHT22;1597;51.572;6.992;2023-07-20T02:10:59;18.90;99.90
3172;DHT22;1597;51.572;6.992;2023-07-20T02:13:24;18.70;99.90
3172;DHT22;1597;51.572;6.992;2023-07-20T02:15:50;18.60;99.90
3172;DHT22;1597;51.572;6.992;2023-07-20T02:18:16;18.50;99.90
3172;DHT22;1597;51.572;6.992;2023-07-20T02:20:42;18.30;99.90
3172;DHT22;1597;51.572;6.992;2023-07-20T02:23:08;18.00;99.90
3172;DHT22;1597;51.572;6.992;2023-07-20T02:25:34;17.90;99.90
3172;DHT22;1597;51.572;6.992;2023-07-20T02:27:59;17.80;99.90
3172;DHT22;1597;51.572;6.992;2023-07-20T02:30:25;17.80;99.90
3172;DHT22;1597;51.572;6.992;2023-07-20T02:32:52;17.80;99.90
3172;DHT22;1597;51.572;6.992;2023-07-20T02:35:18;17.90;99.90
3172;DHT22;1597;51.572;6.992;2023-07-20T02:37:44;17.90;99.90
3172;DHT22;1597;51.572;6.992;2023-07-20T02:40:10;17.90;99.90
3172;DHT22;1597;51.572;6.992;2023-07-20T02:42:36;17.80;99.90
3172;DHT22;1597;51.572;6.992;2023-07-20T02:45:03;17.80;99.90
3172;DHT22;1597;51.572;6.992;2023-07-20T02:47:29;17.70;99.90
3172;DHT22;1597;51.572;6.992;2023-07-20T02:49:56;17.70;99.90
3172;DHT22;1597;51.572;6.992;2023-07-20T02:52:22;17.60;99.90
3172;DHT22;1597;51.572;6.992;2023-07-20T02:54:48;17.40;99.90
3172;DHT22;1597;51.572;6.992;2023-07-20T02:57:14;17.30;99.90
3172;DHT22;1597;51.572;6.992;2023-07-20T02:59:40;17.30;99.90
3172;DHT22;1597;51.572;6.992;2023-07-20T03:02:06;17.50;99.90
3172;DHT22;1597;51.572;6.992;2023-07-20T03:04:35;17.60;99.90
3172;DHT22;1597;51.572;6.992;2023-07-20T03:07:04;17.60;99.90
3172;DHT22;1597;51.572;6.992;2023-07-20T03:09:30;17.60;99.90
3172;DHT22;1597;51.572;6.992;2023-07-20T03:11:56;17.50;99.90
3172;DHT22;1597;51.572;6.992;2023-07-20T03:14:22;17.50;99.90
3172;DHT22;1597;51.572;6.992;2023-07-20T03:16:49;17.50;99.90
3172;DHT22;1597;51.572;6.992;2023-07-20T03:19:15;17.40;99.90
3172;DHT22;1597;51.572;6.992;2023-07-20T03:21:41;17.30;99.90
3172;DHT22;1597;51.572;6.992;2023-07-20T03:24:08;17.20;99.90
3172;DHT22;1597;51.572;6.992;2023-07-20T03:26:34;17.10;99.90
3172;DHT22;1597;51.572;6.992;2023-07-20T03:29:01;17.10;99.90
3172;DHT22;1597;51.572;6.992;2023-07-20T03:31:27;17.10;99.90
3172;DHT22;1597;51.572;6.992;2023-07-20T03:33:54;17.00;99.90
3172;DHT22;1597;51.572;6.992;2023-07-20T03:36:19;17.00;99.90
3172;DHT22;1597;51.572;6.992;2023-07-20T03:38:46;17.00;99.90
3172;DHT22;1597;51.572;6.992;2023-07-20T03:41:11;17.00;99.90
3172;DHT22;1597;51.572;6.992;2023-07-20T03:43:37;17.10;99.90
3172;DHT22;1597;51.572;6.992;2023-07-20T03:46:03;17.20;99.90
3172;DHT22;1597;51.572;6.992;2023-07-20T03:48:32;17.20;99.90
3172;DHT22;1597;51.572;6.992;2023-07-20T03:50:59;17.30;99.90
3172;DHT22;1597;51.572;6.992;2023-07-20T03:53:26;17.30;99.90
3172;DHT22;1597;51.572;6.992;2023-07-20T03:55:52;17.30;99.90
3172;DHT22;1597;51.572;6.992;2023-07-20T03:58:19;17.30;99.90
3172;DHT22;1597;51.572;6.992;2023-07-20T04:00:50;17.30;99.90
3172;DHT22;1597;51.572;6.992;2023-07-20T04:03:18;17.40;99.90
3172;DHT22;1597;51.572;6.992;2023-07-20T04:05:44;17.40;99.90
3172;DHT22;1597;51.572;6.992;2023-07-20T04:08:11;17.40;99.90
3172;DHT22;1597;51.572;6.992;2023-07-20T04:10:37;17.40;99.90
3172;DHT22;1597;51.572;6.992;2023-07-20T04:13:04;17.30;99.90
3172;DHT22;1597;51.572;6.992;2023-07-20T04:15:30;17.30;99.90
3172;DHT22;1597;51.572;6.992;2023-07-20T04:17:57;17.40;99.90
3172;DHT22;1597;51.572;6.992;2023-07-20T04:20:25;17.40;99.90
3172;DHT22;1597;51.572;6.992;2023-07-20T04:22:51;17.40;99.90
3172;DHT22;1597;51.572;6.992;2023-07-20T04:25:20;17.50;99.90
3172;DHT22;1597;51.572;6.992;2023-07-20T04:27:46;17.50;99.90
3172;DHT22;1597;51.572;6.992;2023-07-20T04:30:13;17.30;99.90
3172;DHT22;1597;51.572;6.992;2023-07-20T04:32:41;17.20;99.90
3172;DHT22;1597;51.572;6.992;2023-07-20T04:35:09;17.20;99.90
3172;DHT22;1597;51.572;6.992;2023-07-20T04:37:35;17.30;99.90
3172;DHT22;1597;51.572;6.992;2023-07-20T04:40:01;17.30;99.90
3172;DHT22;1597;51.572;6.992;2023-07-20T04:42:27;17.30;99.90
3172;DHT22;1597;51.572;6.992;2023-07-20T04:44:52;17.40;99.90
3172;DHT22;1597;51.572;6.992;2023-07-20T04:47:18;17.60;99.90
3172;DHT22;1597;51.572;6.992;2023-07-20T04:49:44;17.70;99.90
3172;DHT22;1597;51.572;6.992;2023-07-20T04:52:10;17.80;99.90
3172;DHT22;1597;51.572;6.992;2023-07-20T04:54:36;17.70;99.90
3172;DHT22;1597;51.572;6.992;2023-07-20T04:57:02;17.60;99.90
3172;DHT22;1597;51.572;6.992;2023-07-20T04:59:28;17.60;99.90
3172;DHT22;1597;51.572;6.992;2023-07-20T05:01:53;17.60;99.90
3172;DHT22;1597;51.572;6.992;2023-07-20T05:04:19;17.60;99.90
3172;DHT22;1597;51.572;6.992;2023-07-20T05:06:45;17.60;99.90
3172;DHT22;1597;51.572;6.992;2023-07-20T05:09:11;17.40;99.90
3172;DHT22;1597;51.572;6.992;2023-07-20T05:11:37;17.20;99.90
3172;DHT22;1597;51.572;6.992;2023-07-20T05:14:03;17.20;99.90
3172;DHT22;1597;51.572;6.992;2023-07-20T05:16:29;17.20;99.90
3172;DHT22;1597;51.572;6.992;2023-07-20T05:18:54;17.20;99.90
3172;DHT22;1597;51.572;6.992;2023-07-20T05:21:22;17.30;99.90
3172;DHT22;1597;51.572;6.992;2023-07-20T05:23:48;17.30;99.90
3172;DHT22;1597;51.572;6.992;2023-07-20T05:26:14;17.20;99.90
3172;DHT22;1597;51.572;6.992;2023-07-20T05:28:39;17.20;99.90
3172;DHT22;1597;51.572;6.992;2023-07-20T05:31:05;17.20;99.90
3172;DHT22;1597;51.572;6.992;2023-07-20T05:33:31;17.20;99.90
3172;DHT22;1597;51.572;6.992;2023-07-20T05:35:57;17.30;99.90
3172;DHT22;1597;51.572;6.992;2023-07-20T05:38:23;17.40;99.90
3172;DHT22;1597;51.572;6.992;2023-07-20T05:40:49;17.50;99.90
3172;DHT22;1597;51.572;6.992;2023-07-20T05:43:15;17.50;99.90
3172;DHT22;1597;51.572;6.992;2023-07-20T05:45:44;17.50;99.90
3172;DHT22;1597;51.572;6.992;2023-07-20T05:48:10;17.40;99.90
3172;DHT22;1597;51.572;6.992;2023-07-20T05:50:43;17.30;99.90
3172;DHT22;1597;51.572;6.992;2023-07-20T05:53:09;17.10;99.90
3172;DHT22;1597;51.572;6.992;2023-07-20T05:55:35;16.90;99.90
3172;DHT22;1597;51.572;6.992;2023-07-20T05:58:01;16.80;99.90
3172;DHT22;1597;51.572;6.992;2023-07-20T06:00:27;16.80;99.90
3172;DHT22;1597;51.572;6.992;2023-07-20T06:02:53;17.00;99.90
3172;DHT22;1597;51.572;6.992;2023-07-20T06:05:21;17.00;99.90
3172;DHT22;1597;51.572;6.992;2023-07-20T06:07:49;17.10;99.90
3172;DHT22;1597;51.572;6.992;2023-07-20T06:10:15;17.00;99.90
3172;DHT22;1597;51.572;6.992;2023-07-20T06:12:41;17.00;99.90
3172;DHT22;1597;51.572;6.992;2023-07-20T06:15:27;16.80;99.90
3172;DHT22;1597;51.572;6.992;2023-07-20T06:17:56;16.90;99.90
3172;DHT22;1597;51.572;6.992;2023-07-20T06:20:23;17.00;99.90
3172;DHT22;1597;51.572;6.992;2023-07-20T06:22:50;17.00;99.90
3172;DHT22;1597;51.572;6.992;2023-07-20T06:25:16;17.00;99.90
3172;DHT22;1597;51.572;6.992;2023-07-20T06:27:42;17.10;99.90
3172;DHT22;1597;51.572;6.992;2023-07-20T06:30:09;17.20;99.90
3172;DHT22;1597;51.572;6.992;2023-07-20T06:32:36;17.30;99.90
3172;DHT22;1597;51.572;6.992;2023-07-20T06:35:01;17.60;99.90
3172;DHT22;1597;51.572;6.992;2023-07-20T06:37:27;17.60;99.90
3172;DHT22;1597;51.572;6.992;2023-07-20T06:39:53;17.60;99.90
3172;DHT22;1597;51.572;6.992;2023-07-20T06:42:19;17.70;99.90
3172;DHT22;1597;51.572;6.992;2023-07-20T06:44:45;17.70;99.90
3172;DHT22;1597;51.572;6.992;2023-07-20T06:47:11;17.80;99.90
3172;DHT22;1597;51.572;6.992;2023-07-20T06:49:37;17.80;99.90
3172;DHT22;1597;51.572;6.992;2023-07-20T06:52:04;17.90;99.90
3172;DHT22;1597;51.572;6.992;2023-07-20T06:54:30;17.90;99.90
3172;DHT22;1597;51.572;6.992;2023-07-20T06:56:55;17.90;99.90
3172;DHT22;1597;51.572;6.992;2023-07-20T06:59:21;18.00;99.90
3172;DHT22;1597;51.572;6.992;2023-07-20T07:01:49;18.00;99.90
3172;DHT22;1597;51.572;6.992;2023-07-20T07:04:15;17.90;99.90
3172;DHT22;1597;51.572;6.992;2023-07-20T07:06:41;17.90;99.90
3172;DHT22;1597;51.572;6.992;2023-07-20T07:09:07;18.10;99.90
3172;DHT22;1597;51.572;6.992;2023-07-20T07:11:33;18.10;99.90
3172;DHT22;1597;51.572;6.992;2023-07-20T07:13:59;18.00;99.90
3172;DHT22;1597;51.572;6.992;2023-07-20T07:16:25;18.00;99.90
3172;DHT22;1597;51.572;6.992;2023-07-20T07:18:51;18.10;99.90
3172;DHT22;1597;51.572;6.992;2023-07-20T07:21:17;18.10;99.90
3172;DHT22;1597;51.572;6.992;2023-07-20T07:23:43;18.00;99.90
3172;DHT22;1597;51.572;6.992;2023-07-20T07:26:10;18.10;99.90
3172;DHT22;1597;51.572;6.992;2023-07-20T07:28:36;18.20;99.90
3172;DHT22;1597;51.572;6.992;2023-07-20T07:31:05;18.40;99.90
3172;DHT22;1597;51.572;6.992;2023-07-20T07:33:31;18.40;99.90
3172;DHT22;1597;51.572;6.992;2023-07-20T07:35:57;18.30;99.90
3172;DHT22;1597;51.572;6.992;2023-07-20T07:38:24;18.10;99.90
3172;DHT22;1597;51.572;6.992;2023-07-20T07:40:50;18.10;99.90
3172;DHT22;1597;51.572;6.992;2023-07-20T07:43:16;18.20;99.40
3172;DHT22;1597;51.572;6.992;2023-07-20T07:45:42;18.10;97.80
3172;DHT22;1597;51.572;6.992;2023-07-20T07:48:08;18.00;98.30
3172;DHT22;1597;51.572;6.992;2023-07-20T07:50:36;17.90;98.50
3172;DHT22;1597;51.572;6.992;2023-07-20T07:53:02;17.90;99.30
3172;DHT22;1597;51.572;6.992;2023-07-20T07:55:28;18.10;99.90
3172;DHT22;1597;51.572;6.992;2023-07-20T07:57:54;18.20;97.90
3172;DHT22;1597;51.572;6.992;2023-07-20T08:00:20;18.20;98.80
3172;DHT22;1597;51.572;6.992;2023-07-20T08:02:46;18.20;97.40
3172;DHT22;1597;51.572;6.992;2023-07-20T08:05:13;18.40;97.90
3172;DHT22;1597;51.572;6.992;2023-07-20T08:07:39;18.50;98.80
3172;DHT22;1597;51.572;6.992;2023-07-20T08:10:07;18.70;94.70
3172;DHT22;1597;51.572;6.992;2023-07-20T08:12:33;18.70;89.60
3172;DHT22;1597;51.572;6.992;2023-07-20T08:14:59;18.80;88.10
3172;DHT22;1597;51.572;6.992;2023-07-20T08:17:25;18.90;74.50
3172;DHT22;1597;51.572;6.992;2023-07-20T08:19:51;18.90;76.60
3172;DHT22;1597;51.572;6.992;2023-07-20T08:22:17;18.90;66.90
3172;DHT22;1597;51.572;6.992;2023-07-20T08:24:43;18.80;58.10
3172;DHT22;1597;51.572;6.992;2023-07-20T08:27:09;18.80;65.00
3172;DHT22;1597;51.572;6.992;2023-07-20T08:29:36;18.70;65.40
3172;DHT22;1597;51.572;6.992;2023-07-20T08:32:02;18.80;83.40
3172;DHT22;1597;51.572;6.992;2023-07-20T08:34:29;18.90;85.00
3172;DHT22;1597;51.572;6.992;2023-07-20T08:36:56;18.90;76.60
3172;DHT22;1597;51.572;6.992;2023-07-20T08:39:24;18.80;53.90
3172;DHT22;1597;51.572;6.992;2023-07-20T08:41:50;18.70;64.90
3172;DHT22;1597;51.572;6.992;2023-07-20T08:44:19;18.70;92.30
3172;DHT22;1597;51.572;6.992;2023-07-20T08:46:47;18.70;81.30
3172;DHT22;1597;51.572;6.992;2023-07-20T08:49:13;18.80;86.00
3172;DHT22;1597;51.572;6.992;2023-07-20T08:51:42;19.00;88.70
3172;DHT22;1597;51.572;6.992;2023-07-20T08:54:12;19.20;80.70
3172;DHT22;1597;51.572;6.992;2023-07-20T08:56:39;19.30;74.40
3172;DHT22;1597;51.572;6.992;2023-07-20T08:59:08;19.40;41.00
3172;DHT22;1597;51.572;6.992;2023-07-20T09:01:35;19.40;40.50
3172;DHT22;1597;51.572;6.992;2023-07-20T09:04:03;19.30;41.00
3172;DHT22;1597;51.572;6.992;2023-07-20T09:06:29;19.30;42.70
3172;DHT22;1597;51.572;6.992;2023-07-20T09:08:56;19.40;52.70
3172;DHT22;1597;51.572;6.992;2023-07-20T09:11:21;19.50;28.00
3172;DHT22;1597;51.572;6.992;2023-07-20T09:13:47;19.40;11.40
3172;DHT22;1597;51.572;6.992;2023-07-20T09:16:16;19.50;16.30
3172;DHT22;1597;51.572;6.992;2023-07-20T09:18:42;19.50;23.20
3172;DHT22;1597;51.572;6.992;2023-07-20T09:21:08;19.60;18.00
3172;DHT22;1597;51.572;6.992;2023-07-20T09:23:35;19.70;21.70
3172;DHT22;1597;51.572;6.992;2023-07-20T09:26:12;19.80;9.20
3172;DHT22;1597;51.572;6.992;2023-07-20T09:28:53;19.90;14.30
3172;DHT22;1597;51.572;6.992;2023-07-20T09:31:22;19.80;2.50
3172;DHT22;1597;51.572;6.992;2023-07-20T09:33:49;19.90;1.70
3172;DHT22;1597;51.572;6.992;2023-07-20T09:36:17;19.90;16.70
3172;DHT22;1597;51.572;6.992;2023-07-20T09:38:43;19.80;27.00
3172;DHT22;1597;51.572;6.992;2023-07-20T09:41:13;19.70;24.70
3172;DHT22;1597;51.572;6.992;2023-07-20T09:43:43;19.60;21.50
3172;DHT22;1597;51.572;6.992;2023-07-20T09:46:11;19.50;33.90
3172;DHT22;1597;51.572;6.992;2023-07-20T09:48:37;19.60;25.30
3172;DHT22;1597;51.572;6.992;2023-07-20T09:51:03;19.80;18.30
3172;DHT22;1597;51.572;6.992;2023-07-20T09:53:33;19.80;15.10
3172;DHT22;1597;51.572;6.992;2023-07-20T09:56:00;19.90;3.30
3172;DHT22;1597;51.572;6.992;2023-07-20T09:58:26;19.90;1.00
3172;DHT22;1597;51.572;6.992;2023-07-20T10:00:56;19.90;1.00
3172;DHT22;1597;51.572;6.992;2023-07-20T10:03:28;19.90;3.00
3172;DHT22;1597;51.572;6.992;2023-07-20T10:06:06;19.90;1.00
3172;DHT22;1597;51.572;6.992;2023-07-20T10:08:38;20.00;1.00
3172;DHT22;1597;51.572;6.992;2023-07-20T10:11:08;19.90;1.00
3172;DHT22;1597;51.572;6.992;2023-07-20T10:13:38;20.00;1.00
3172;DHT22;1597;51.572;6.992;2023-07-20T10:16:11;20.00;1.00
3172;DHT22;1597;51.572;6.992;2023-07-20T10:18:51;20.00;1.00
3172;DHT22;1597;51.572;6.992;2023-07-20T10:21:27;20.00;1.00
3172;DHT22;1597;51.572;6.992;2023-07-20T10:23:56;20.00;1.00
3172;DHT22;1597;51.572;6.992;2023-07-20T10:26:22;20.10;1.00
3172;DHT22;1597;51.572;6.992;2023-07-20T10:28:50;20.30;1.00
3172;DHT22;1597;51.572;6.992;2023-07-20T10:31:18;20.30;1.00
3172;DHT22;1597;51.572;6.992;2023-07-20T10:33:44;20.40;1.00
3172;DHT22;1597;51.572;6.992;2023-07-20T10:36:10;20.20;1.00
3172;DHT22;1597;51.572;6.992;2023-07-20T10:38:56;20.20;1.00
3172;DHT22;1597;51.572;6.992;2023-07-20T10:41:27;20.30;1.00
3172;DHT22;1597;51.572;6.992;2023-07-20T10:44:09;20.30;1.00
3172;DHT22;1597;51.572;6.992;2023-07-20T10:49:08;20.20;1.00
3172;DHT22;1597;51.572;6.992;2023-07-20T10:51:44;20.30;1.00
3172;DHT22;1597;51.572;6.992;2023-07-20T10:56:47;20.40;1.00
3172;DHT22;1597;51.572;6.992;2023-07-20T10:59:35;20.50;1.00
3172;DHT22;1597;51.572;6.992;2023-07-20T11:02:09;20.70;1.00
3172;DHT22;1597;51.572;6.992;2023-07-20T11:04:41;20.90;1.00
3172;DHT22;1597;51.572;6.992;2023-07-20T11:07:08;21.00;1.00
3172;DHT22;1597;51.572;6.992;2023-07-20T11:09:35;21.10;1.00
3172;DHT22;1597;51.572;6.992;2023-07-20T11:12:13;21.20;1.00
3172;DHT22;1597;51.572;6.992;2023-07-20T11:14:41;21.30;1.00
3172;DHT22;1597;51.572;6.992;2023-07-20T11:17:16;21.20;1.00
3172;DHT22;1597;51.572;6.992;2023-07-20T11:19:48;21.30;1.00
3172;DHT22;1597;51.572;6.992;2023-07-20T11:22:17;21.40;1.00
3172;DHT22;1597;51.572;6.992;2023-07-20T11:24:44;21.50;1.00
3172;DHT22;1597;51.572;6.992;2023-07-20T11:27:10;21.60;1.00
3172;DHT22;1597;51.572;6.992;2023-07-20T11:29:37;21.50;1.00
3172;DHT22;1597;51.572;6.992;2023-07-20T11:32:03;21.60;1.00
3172;DHT22;1597;51.572;6.992;2023-07-20T11:34:31;21.60;1.00
3172;DHT22;1597;51.572;6.992;2023-07-20T11:36:58;21.70;1.00
3172;DHT22;1597;51.572;6.992;2023-07-20T11:39:24;21.80;1.00
3172;DHT22;1597;51.572;6.992;2023-07-20T11:42:00;21.90;1.00
3172;DHT22;1597;51.572;6.992;2023-07-20T11:44:29;21.80;1.00
3172;DHT22;1597;51.572;6.992;2023-07-20T11:47:07;21.70;1.00
3172;DHT22;1597;51.572;6.992;2023-07-20T11:49:41;21.70;1.00
3172;DHT22;1597;51.572;6.992;2023-07-20T11:52:13;21.70;1.00
3172;DHT22;1597;51.572;6.992;2023-07-20T11:54:41;21.60;1.00
3172;DHT22;1597;51.572;6.992;2023-07-20T11:57:16;21.60;1.00
3172;DHT22;1597;51.572;6.992;2023-07-20T12:02:23;21.80;1.00
3172;DHT22;1597;51.572;6.992;2023-07-20T12:04:51;21.70;1.00
3172;DHT22;1597;51.572;6.992;2023-07-20T12:07:18;21.80;1.00
3172;DHT22;1597;51.572;6.992;2023-07-20T12:10:02;21.80;1.00
3172;DHT22;1597;51.572;6.992;2023-07-20T12:12:33;21.70;1.00
3172;DHT22;1597;51.572;6.992;2023-07-20T12:15:22;21.70;1.00
3172;DHT22;1597;51.572;6.992;2023-07-20T12:17:56;21.70;1.00
3172;DHT22;1597;51.572;6.992;2023-07-20T12:20:31;21.70;1.00
3172;DHT22;1597;51.572;6.992;2023-07-20T12:23:01;21.80;1.00
3172;DHT22;1597;51.572;6.992;2023-07-20T12:25:48;21.80;1.00
3172;DHT22;1597;51.572;6.992;2023-07-20T12:28:16;21.70;1.00
3172;DHT22;1597;51.572;6.992;2023-07-20T12:30:44;21.60;1.00
3172;DHT22;1597;51.572;6.992;2023-07-20T12:33:12;21.50;1.00
3172;DHT22;1597;51.572;6.992;2023-07-20T12:35:42;21.50;1.00
3172;DHT22;1597;51.572;6.992;2023-07-20T12:38:11;21.70;1.00
3172;DHT22;1597;51.572;6.992;2023-07-20T12:40:37;21.70;1.00
3172;DHT22;1597;51.572;6.992;2023-07-20T12:43:06;21.80;1.00
3172;DHT22;1597;51.572;6.992;2023-07-20T12:45:33;21.80;1.00
3172;DHT22;1597;51.572;6.992;2023-07-20T12:47:59;21.80;1.00
3172;DHT22;1597;51.572;6.992;2023-07-20T12:50:27;22.10;1.00
3172;DHT22;1597;51.572;6.992;2023-07-20T12:52:53;22.10;1.00
3172;DHT22;1597;51.572;6.992;2023-07-20T12:55:18;22.30;1.00
3172;DHT22;1597;51.572;6.992;2023-07-20T12:57:46;22.30;1.00
3172;DHT22;1597;51.572;6.992;2023-07-20T13:00:15;22.30;1.00
3172;DHT22;1597;51.572;6.992;2023-07-20T13:02:42;22.40;1.00
3172;DHT22;1597;51.572;6.992;2023-07-20T13:05:09;22.60;1.00
3172;DHT22;1597;51.572;6.992;2023-07-20T13:07:37;22.70;1.00
3172;DHT22;1597;51.572;6.992;2023-07-20T13:10:05;22.80;1.00
3172;DHT22;1597;51.572;6.992;2023-07-20T13:12:32;22.70;1.00
3172;DHT22;1597;51.572;6.992;2023-07-20T13:14:59;22.50;1.00
3172;DHT22;1597;51.572;6.992;2023-07-20T13:17:26;22.50;1.00
3172;DHT22;1597;51.572;6.992;2023-07-20T13:19:53;22.60;1.00
3172;DHT22;1597;51.572;6.992;2023-07-20T13:22:20;22.60;1.00
3172;DHT22;1597;51.572;6.992;2023-07-20T13:24:46;22.70;1.00
3172;DHT22;1597;51.572;6.992;2023-07-20T13:27:17;22.90;1.00
3172;DHT22;1597;51.572;6.992;2023-07-20T13:29:43;23.00;1.00
3172;DHT22;1597;51.572;6.992;2023-07-20T13:32:10;23.10;1.00
3172;DHT22;1597;51.572;6.992;2023-07-20T13:34:36;23.00;1.00
3172;DHT22;1597;51.572;6.992;2023-07-20T13:37:02;22.90;1.00
3172;DHT22;1597;51.572;6.992;2023-07-20T13:39:29;22.80;1.00
3172;DHT22;1597;51.572;6.992;2023-07-20T13:41:57;22.80;1.00
3172;DHT22;1597;51.572;6.992;2023-07-20T13:44:23;22.90;1.00
3172;DHT22;1597;51.572;6.992;2023-07-20T13:46:49;22.90;1.00
3172;DHT22;1597;51.572;6.992;2023-07-20T13:49:15;23.10;1.00
3172;DHT22;1597;51.572;6.992;2023-07-20T13:51:42;23.20;1.00
3172;DHT22;1597;51.572;6.992;2023-07-20T13:54:08;23.30;1.00
3172;DHT22;1597;51.572;6.992;2023-07-20T13:56:34;23.40;1.00
3172;DHT22;1597;51.572;6.992;2023-07-20T13:59:00;23.40;1.00
3172;DHT22;1597;51.572;6.992;2023-07-20T14:01:26;23.40;1.00
3172;DHT22;1597;51.572;6.992;2023-07-20T14:03:54;23.30;1.00
3172;DHT22;1597;51.572;6.992;2023-07-20T14:06:20;23.20;1.00
3172;DHT22;1597;51.572;6.992;2023-07-20T14:08:46;23.10;1.00
3172;DHT22;1597;51.572;6.992;2023-07-20T14:11:13;23.20;1.00
3172;DHT22;1597;51.572;6.992;2023-07-20T14:13:39;23.20;1.00
3172;DHT22;1597;51.572;6.992;2023-07-20T14:16:05;23.30;1.00
3172;DHT22;1597;51.572;6.992;2023-07-20T14:18:31;23.40;1.00
3172;DHT22;1597;51.572;6.992;2023-07-20T14:20:57;23.50;1.00
3172;DHT22;1597;51.572;6.992;2023-07-20T14:23:22;23.70;1.00
3172;DHT22;1597;51.572;6.992;2023-07-20T14:25:50;23.60;1.00
3172;DHT22;1597;51.572;6.992;2023-07-20T14:28:16;23.40;1.00
3172;DHT22;1597;51.572;6.992;2023-07-20T14:30:42;23.20;1.00
3172;DHT22;1597;51.572;6.992;2023-07-20T14:33:08;23.10;1.00
3172;DHT22;1597;51.572;6.992;2023-07-20T14:35:34;23.00;1.00
3172;DHT22;1597;51.572;6.992;2023-07-20T14:38:00;23.00;1.00
3172;DHT22;1597;51.572;6.992;2023-07-20T14:40:27;22.90;1.00
3172;DHT22;1597;51.572;6.992;2023-07-20T14:42:53;22.90;1.00
3172;DHT22;1597;51.572;6.992;2023-07-20T14:45:19;22.80;1.00
3172;DHT22;1597;51.572;6.992;2023-07-20T14:47:45;22.80;1.00
3172;DHT22;1597;51.572;6.992;2023-07-20T14:50:11;22.70;1.00
3172;DHT22;1597;51.572;6.992;2023-07-20T14:52:37;22.70;1.00
3172;DHT22;1597;51.572;6.992;2023-07-20T14:55:03;22.80;1.00
3172;DHT22;1597;51.572;6.992;2023-07-20T14:57:30;22.90;1.00
3172;DHT22;1597;51.572;6.992;2023-07-20T14:59:55;23.00;1.00
3172;DHT22;1597;51.572;6.992;2023-07-20T15:02:22;23.00;1.00
3172;DHT22;1597;51.572;6.992;2023-07-20T15:04:51;22.90;1.00
3172;DHT22;1597;51.572;6.992;2023-07-20T15:07:19;23.00;1.00
3172;DHT22;1597;51.572;6.992;2023-07-20T15:09:47;23.00;1.00
3172;DHT22;1597;51.572;6.992;2023-07-20T15:12:13;22.90;1.00
3172;DHT22;1597;51.572;6.992;2023-07-20T15:14:40;22.90;1.00
3172;DHT22;1597;51.572;6.992;2023-07-20T15:17:09;22.80;1.00
3172;DHT22;1597;51.572;6.992;2023-07-20T15:19:35;22.80;1.00
3172;DHT22;1597;51.572;6.992;2023-07-20T15:22:02;22.80;1.00
3172;DHT22;1597;51.572;6.992;2023-07-20T15:24:29;22.90;1.00
3172;DHT22;1597;51.572;6.992;2023-07-20T15:26:55;22.80;1.00
3172;DHT22;1597;51.572;6.992;2023-07-20T15:29:23;22.70;1.00
3172;DHT22;1597;51.572;6.992;2023-07-20T15:31:49;22.70;1.00
3172;DHT22;1597;51.572;6.992;2023-07-20T15:34:15;22.70;1.00
3172;DHT22;1597;51.572;6.992;2023-07-20T15:36:41;22.70;1.00
3172;DHT22;1597;51.572;6.992;2023-07-20T15:39:10;22.70;1.00
3172;DHT22;1597;51.572;6.992;2023-07-20T15:41:36;22.70;1.00
3172;DHT22;1597;51.572;6.992;2023-07-20T15:44:02;22.80;1.00
3172;DHT22;1597;51.572;6.992;2023-07-20T15:49:07;22.80;1.00
3172;DHT22;1597;51.572;6.992;2023-07-20T15:51:35;22.80;1.00
3172;DHT22;1597;51.572;6.992;2023-07-20T15:54:04;22.80;1.00
3172;DHT22;1597;51.572;6.992;2023-07-20T15:56:33;22.70;1.00
3172;DHT22;1597;51.572;6.992;2023-07-20T15:58:59;22.80;1.00
3172;DHT22;1597;51.572;6.992;2023-07-20T16:01:25;22.80;1.00
3172;DHT22;1597;51.572;6.992;2023-07-20T16:03:51;22.80;1.00
3172;DHT22;1597;51.572;6.992;2023-07-20T16:06:17;22.80;1.00
3172;DHT22;1597;51.572;6.992;2023-07-20T16:08:43;22.90;1.00
3172;DHT22;1597;51.572;6.992;2023-07-20T16:11:09;22.80;1.00
3172;DHT22;1597;51.572;6.992;2023-07-20T16:13:34;22.80;1.00
3172;DHT22;1597;51.572;6.992;2023-07-20T16:16:00;22.80;1.00
3172;DHT22;1597;51.572;6.992;2023-07-20T16:18:26;22.70;1.00
3172;DHT22;1597;51.572;6.992;2023-07-20T16:20:54;22.60;1.00
3172;DHT22;1597;51.572;6.992;2023-07-20T16:23:21;22.60;1.00
3172;DHT22;1597;51.572;6.992;2023-07-20T16:25:48;22.70;1.00